createdAt,value
2018-11-05T00:00:33.362Z,12.20
2018-11-05T00:03:02.207Z,12.20
2018-11-05T00:05:31.032Z,12.20
2018-11-05T00:08:00.613Z,12.20
2018-11-05T00:10:29.455Z,12.20
2018-11-05T00:12:58.287Z,12.20
2018-11-05T00:15:27.116Z,12.10
2018-11-05T00:17:56.690Z,12.10
2018-11-05T00:20:25.525Z,12.10
2018-11-05T00:22:54.354Z,12.10
2018-11-05T00:25:23.184Z,12.10
2018-11-05T00:27:52.025Z,12.10
2018-11-05T00:30:20.853Z,12.10
2018-11-05T00:32:49.697Z,12.10
2018-11-05T00:35:18.537Z,12.10
2018-11-05T00:37:47.375Z,12.10
2018-11-05T00:40:16.204Z,12.20
2018-11-05T00:42:45.783Z,12.10
2018-11-05T00:45:14.622Z,12.20
2018-11-05T00:47:43.468Z,12.20
2018-11-05T00:50:12.292Z,12.20
2018-11-05T00:52:41.866Z,12.00
2018-11-05T00:55:10.700Z,12.00
2018-11-05T00:57:39.528Z,12.00
2018-11-05T01:00:08.371Z,12.00
2018-11-05T01:02:37.236Z,12.00
2018-11-05T01:05:06.037Z,12.00
2018-11-05T01:07:34.871Z,12.10
2018-11-05T01:10:03.705Z,12.10
2018-11-05T01:12:33.277Z,12.00
2018-11-05T01:15:02.115Z,12.10
2018-11-05T01:17:30.955Z,12.00
2018-11-05T01:19:59.799Z,12.00
2018-11-05T01:22:28.635Z,12.00
2018-11-05T01:24:57.459Z,12.00
2018-11-05T01:27:27.032Z,11.90
2018-11-05T01:29:55.868Z,12.00
2018-11-05T01:32:24.705Z,12.00
2018-11-05T01:34:53.540Z,12.00
2018-11-05T01:37:23.223Z,11.90
2018-11-05T01:39:51.965Z,12.00
2018-11-05T01:42:20.784Z,12.10
2018-11-05T01:44:49.619Z,12.00
2018-11-05T01:47:18.455Z,12.00
2018-11-05T01:49:47.283Z,12.00
2018-11-05T01:52:16.118Z,12.00
2018-11-05T01:54:44.944Z,12.00
2018-11-05T01:57:13.781Z,12.00
2018-11-05T01:59:42.623Z,12.00
2018-11-05T02:02:11.474Z,11.90
2018-11-05T02:04:40.312Z,12.00
2018-11-05T02:07:09.884Z,12.00
2018-11-05T02:09:38.719Z,11.90
2018-11-05T02:12:08.301Z,11.90
2018-11-05T02:14:37.143Z,11.90
2018-11-05T02:17:05.996Z,11.90
2018-11-05T02:19:35.568Z,11.90
2018-11-05T02:22:04.396Z,12.00
2018-11-05T02:24:33.969Z,11.90
2018-11-05T02:27:02.813Z,11.90
2018-11-05T02:29:32.031Z,11.90
2018-11-05T02:32:00.856Z,11.90
2018-11-05T02:34:29.699Z,11.80
2018-11-05T02:36:58.537Z,11.90
2018-11-05T02:39:27.389Z,11.80
2018-11-05T02:41:56.228Z,11.90
2018-11-05T02:44:25.795Z,11.90
2018-11-05T02:46:54.624Z,12.00
2018-11-05T02:49:24.191Z,12.00
2018-11-05T02:51:53.020Z,12.00
2018-11-05T02:54:22.601Z,12.00
2018-11-05T02:56:51.439Z,12.00
2018-11-05T02:59:20.273Z,12.00
2018-11-05T03:01:49.108Z,12.00
2018-11-05T03:04:17.947Z,12.00
2018-11-05T03:06:46.783Z,11.90
2018-11-05T03:09:15.611Z,11.90
2018-11-05T03:11:44.447Z,11.80
2018-11-05T03:14:14.035Z,11.80
2018-11-05T03:16:42.881Z,11.80
2018-11-05T03:19:11.705Z,11.90
2018-11-05T03:21:40.542Z,11.80
2018-11-05T03:24:09.379Z,11.70
2018-11-05T03:26:38.207Z,11.70
2018-11-05T03:29:07.049Z,11.70
2018-11-05T03:31:35.885Z,11.70
2018-11-05T03:34:04.713Z,11.70
2018-11-05T03:36:33.541Z,11.70
2018-11-05T03:39:02.391Z,11.70
2018-11-05T03:41:31.222Z,11.80
2018-11-05T03:44:00.797Z,11.70
2018-11-05T03:46:29.629Z,11.70
2018-11-05T03:48:59.211Z,11.70
2018-11-05T03:51:28.786Z,11.70
2018-11-05T03:53:57.615Z,11.70
2018-11-05T03:56:26.445Z,11.70
2018-11-05T03:58:55.281Z,11.70
2018-11-05T04:01:24.126Z,11.70
2018-11-05T04:03:52.959Z,11.70
2018-11-05T04:06:21.786Z,11.70
2018-11-05T04:08:50.623Z,11.70
2018-11-05T04:11:19.455Z,11.70
2018-11-05T04:13:49.025Z,11.70
2018-11-05T04:16:17.862Z,11.70
2018-11-05T04:18:46.698Z,11.70
2018-11-05T04:21:15.528Z,11.70
2018-11-05T04:23:44.360Z,11.60
2018-11-05T04:26:13.192Z,11.60
2018-11-05T04:28:42.041Z,11.50
2018-11-05T04:31:10.878Z,11.50
2018-11-05T04:33:39.734Z,11.40
2018-11-05T04:36:08.565Z,11.50
2018-11-05T04:38:38.137Z,11.40
2018-11-05T04:41:06.980Z,11.30
2018-11-05T04:43:35.818Z,11.30
2018-11-05T04:46:04.650Z,11.20
2018-11-05T04:48:33.490Z,11.20
2018-11-05T04:51:02.329Z,11.10
2018-11-05T04:53:31.173Z,11.10
2018-11-05T04:56:00.030Z,11.00
2018-11-05T04:58:28.868Z,11.00
2018-11-05T05:00:57.699Z,11.00
2018-11-05T05:03:26.625Z,11.00
2018-11-05T05:05:55.381Z,10.90
2018-11-05T05:08:24.212Z,11.00
2018-11-05T05:10:53.054Z,11.00
2018-11-05T05:13:21.902Z,11.00
2018-11-05T05:15:51.479Z,11.00
2018-11-05T05:18:20.315Z,11.10
2018-11-05T05:20:49.150Z,11.10
2018-11-05T05:23:17.978Z,11.10
2018-11-05T05:25:47.549Z,11.10
2018-11-05T05:28:16.376Z,11.20
2018-11-05T05:30:45.202Z,11.10
2018-11-05T05:33:14.092Z,11.10
2018-11-05T05:35:42.868Z,11.10
2018-11-05T05:38:11.766Z,11.10
2018-11-05T05:40:41.107Z,11.10
2018-11-05T05:43:09.820Z,11.20
2018-11-05T05:45:38.703Z,11.20
2018-11-05T05:48:08.270Z,11.20
2018-11-05T05:50:37.116Z,11.20
2018-11-05T05:53:06.694Z,11.20
2018-11-05T05:55:36.264Z,11.20
2018-11-05T05:58:05.093Z,11.30
2018-11-05T06:00:33.932Z,11.30
2018-11-05T06:03:02.775Z,11.30
2018-11-05T06:05:32.362Z,11.30
2018-11-05T06:08:01.200Z,11.40
2018-11-05T06:10:30.039Z,11.40
2018-11-05T06:12:58.871Z,11.40
2018-11-05T06:15:27.750Z,11.40
2018-11-05T06:17:56.554Z,11.40
2018-11-05T06:20:25.408Z,11.30
2018-11-05T06:22:55.580Z,11.30
2018-11-05T06:25:24.328Z,11.30
2018-11-05T06:27:53.158Z,11.30
2018-11-05T06:30:21.995Z,11.30
2018-11-05T06:32:50.837Z,11.30
2018-11-05T06:35:19.734Z,11.40
2018-11-05T06:37:48.543Z,11.40
2018-11-05T06:40:17.379Z,11.50
2018-11-05T06:42:46.213Z,11.50
2018-11-05T06:45:15.097Z,11.40
2018-11-05T06:47:43.892Z,11.40
2018-11-05T06:50:12.739Z,11.40
2018-11-05T06:52:42.298Z,11.50
2018-11-05T06:55:11.209Z,11.50
2018-11-05T06:57:40.052Z,11.50
2018-11-05T07:00:08.878Z,11.60
2018-11-05T07:02:37.779Z,11.50
2018-11-05T07:05:06.556Z,11.40
2018-11-05T07:07:35.392Z,11.40
2018-11-05T07:10:04.228Z,11.40
2018-11-05T07:12:33.056Z,11.30
2018-11-05T07:15:01.899Z,11.30
2018-11-05T07:17:30.729Z,11.40
2018-11-05T07:19:59.578Z,11.40
2018-11-05T07:22:28.408Z,11.40
2018-11-05T07:24:57.247Z,11.50
2018-11-05T07:27:26.106Z,11.50
2018-11-05T07:29:54.924Z,11.40
2018-11-05T07:32:23.766Z,11.40
2018-11-05T07:34:52.617Z,11.40
2018-11-05T07:37:21.483Z,11.40
2018-11-05T07:39:50.319Z,11.60
2018-11-05T07:42:19.156Z,11.60
2018-11-05T07:44:47.991Z,11.60
2018-11-05T07:47:17.570Z,11.60
2018-11-05T07:49:46.405Z,11.60
2018-11-05T07:52:15.264Z,11.60
2018-11-05T07:54:44.117Z,11.60
2018-11-05T07:57:12.949Z,11.70
2018-11-05T07:59:41.784Z,11.70
2018-11-05T08:02:10.617Z,11.70
2018-11-05T08:04:40.210Z,11.60
2018-11-05T08:07:09.068Z,11.60
2018-11-05T08:09:37.905Z,11.70
2018-11-05T08:12:06.757Z,11.70
2018-11-05T08:14:35.594Z,11.70
2018-11-05T08:17:04.432Z,11.70
2018-11-05T08:19:33.265Z,11.70
2018-11-05T08:22:02.101Z,11.80
2018-11-05T08:24:30.934Z,11.70
2018-11-05T08:26:59.810Z,11.80
2018-11-05T08:29:28.612Z,11.80
2018-11-05T08:31:57.462Z,11.80
2018-11-05T08:34:26.359Z,11.80
2018-11-05T08:36:55.136Z,11.90
2018-11-05T08:39:23.981Z,11.90
2018-11-05T08:41:52.833Z,11.90
2018-11-05T08:44:21.676Z,11.90
2018-11-05T08:46:50.604Z,11.90
2018-11-05T08:49:19.373Z,12.00
2018-11-05T08:51:48.573Z,11.90
2018-11-05T08:54:17.124Z,11.90
2018-11-05T08:56:45.927Z,12.00
2018-11-05T08:59:14.761Z,12.00
2018-11-05T09:01:43.610Z,12.00
2018-11-05T09:04:12.465Z,12.00
2018-11-05T09:06:41.334Z,12.10
2018-11-05T09:09:10.163Z,12.10
2018-11-05T09:11:40.031Z,12.10
2018-11-05T09:14:08.579Z,12.10
2018-11-05T09:16:37.411Z,12.10
2018-11-05T09:19:06.237Z,12.20
2018-11-05T09:21:35.110Z,12.20
2018-11-05T09:24:04.698Z,12.10
2018-11-05T09:26:33.527Z,12.10
2018-11-05T09:29:02.383Z,12.20
2018-11-05T09:31:31.236Z,12.10
2018-11-05T09:34:00.076Z,12.20
2018-11-05T09:36:29.653Z,12.20
2018-11-05T09:38:58.485Z,12.40
2018-11-05T09:41:27.323Z,12.40
2018-11-05T09:43:56.154Z,12.40
2018-11-05T09:46:24.985Z,12.50
2018-11-05T09:48:53.825Z,12.50
2018-11-05T09:51:23.430Z,12.50
2018-11-05T09:53:53.014Z,12.60
2018-11-05T09:56:21.845Z,12.60
2018-11-05T09:58:50.685Z,12.50
2018-11-05T10:01:19.520Z,12.60
2018-11-05T10:03:48.552Z,12.60
2018-11-05T10:06:17.240Z,12.60
2018-11-05T10:08:46.019Z,12.60
2018-11-05T10:11:14.856Z,12.50
2018-11-05T10:13:44.433Z,12.60
2018-11-05T10:16:13.272Z,12.70
2018-11-05T10:18:42.106Z,12.70
2018-11-05T10:21:10.951Z,12.80
2018-11-05T10:23:39.811Z,12.90
2018-11-05T10:26:08.670Z,12.90
2018-11-05T10:28:37.478Z,12.80
2018-11-05T10:31:06.317Z,12.90
2018-11-05T10:33:35.198Z,13.00
2018-11-05T10:36:03.983Z,13.10
2018-11-05T10:38:32.828Z,13.20
2018-11-05T10:41:01.652Z,13.20
2018-11-05T10:43:31.226Z,13.30
2018-11-05T10:46:00.125Z,13.30
2018-11-05T10:48:28.917Z,13.30
2018-11-05T10:50:57.767Z,13.40
2018-11-05T10:53:26.596Z,13.50
2018-11-05T10:55:55.420Z,13.50
2018-11-05T10:58:24.260Z,13.50
2018-11-05T11:00:53.091Z,13.50
2018-11-05T11:03:21.937Z,13.50
2018-11-05T11:05:50.811Z,13.40
2018-11-05T11:08:19.613Z,13.40
2018-11-05T11:10:48.466Z,13.40
2018-11-05T11:13:17.301Z,13.40
2018-11-05T11:15:46.144Z,13.20
2018-11-05T11:18:14.988Z,13.30
2018-11-05T11:20:43.828Z,13.40
2018-11-05T11:23:12.656Z,13.30
2018-11-05T11:25:41.499Z,13.30
2018-11-05T11:28:10.374Z,13.40
2018-11-05T11:30:39.176Z,13.40
2018-11-05T11:33:08.036Z,13.40
2018-11-05T11:35:37.610Z,13.50
2018-11-05T11:38:06.452Z,13.40
2018-11-05T11:40:35.296Z,13.50
2018-11-05T11:43:04.132Z,13.50
2018-11-05T11:45:32.977Z,13.50
2018-11-05T11:48:01.825Z,13.50
2018-11-05T11:50:30.665Z,13.40
2018-11-05T11:53:00.281Z,13.40
2018-11-05T11:55:29.111Z,13.50
2018-11-05T11:57:57.922Z,13.50
2018-11-05T12:00:26.760Z,13.50
2018-11-05T12:02:55.614Z,13.50
2018-11-05T12:05:24.556Z,13.60
2018-11-05T12:07:53.284Z,13.70
2018-11-05T12:10:22.115Z,13.80
2018-11-05T12:12:50.956Z,13.90
2018-11-05T12:15:19.787Z,13.90
2018-11-05T12:17:48.652Z,13.80
2018-11-05T12:20:17.487Z,13.60
2018-11-05T12:22:46.324Z,13.50
2018-11-05T12:25:15.172Z,13.40
2018-11-05T12:27:44.004Z,13.40
2018-11-05T12:30:12.855Z,13.40
2018-11-05T12:32:41.708Z,13.60
2018-11-05T12:35:11.268Z,13.40
2018-11-05T12:37:40.100Z,13.50
2018-11-05T12:40:09.686Z,13.50
2018-11-05T12:42:38.529Z,13.40
2018-11-05T12:45:07.391Z,13.40
2018-11-05T12:47:36.200Z,13.40
2018-11-05T12:50:05.066Z,13.50
2018-11-05T12:52:33.916Z,13.50
2018-11-05T12:55:02.749Z,13.60
2018-11-05T12:57:31.598Z,13.60
2018-11-05T13:00:00.439Z,13.60
2018-11-05T13:02:29.291Z,13.70
2018-11-05T13:04:58.169Z,13.70
2018-11-05T13:07:27.043Z,13.80
2018-11-05T13:09:55.864Z,13.80
2018-11-05T13:12:25.446Z,13.80
2018-11-05T13:14:54.300Z,13.80
2018-11-05T13:17:23.119Z,13.90
2018-11-05T13:19:51.955Z,14.10
2018-11-05T13:22:21.636Z,14.00
2018-11-05T13:24:51.118Z,14.10
2018-11-05T13:27:19.955Z,14.30
2018-11-05T13:29:48.833Z,14.30
2018-11-05T13:32:17.630Z,14.30
2018-11-05T13:34:47.213Z,14.30
2018-11-05T13:37:16.356Z,14.40
2018-11-05T13:39:44.883Z,14.30
2018-11-05T13:42:13.733Z,14.10
2018-11-05T13:44:42.574Z,14.30
2018-11-05T13:47:11.902Z,14.30
2018-11-05T13:49:40.355Z,14.40
2018-11-05T13:52:09.218Z,14.40
2018-11-05T13:54:38.042Z,14.30
2018-11-05T13:57:06.739Z,14.30
2018-11-05T13:59:35.585Z,14.30
2018-11-05T14:02:04.417Z,14.30
2018-11-05T14:04:34.002Z,14.30
2018-11-05T14:07:02.856Z,14.30
2018-11-05T14:09:31.701Z,14.30
2018-11-05T14:12:00.535Z,14.30
2018-11-05T14:14:29.380Z,14.30
2018-11-05T14:16:58.222Z,14.20
2018-11-05T14:19:27.064Z,14.30
2018-11-05T14:21:55.901Z,14.30
2018-11-05T14:24:24.734Z,14.30
2018-11-05T14:26:53.574Z,14.30
2018-11-05T14:29:23.537Z,14.30
2018-11-05T14:31:52.000Z,14.40
2018-11-05T14:34:20.899Z,14.40
2018-11-05T14:36:49.786Z,14.50
2018-11-05T14:39:18.505Z,14.50
2018-11-05T14:41:47.344Z,14.40
2018-11-05T14:44:16.196Z,14.30
2018-11-05T14:46:45.020Z,14.20
2018-11-05T14:49:13.847Z,14.20
2018-11-05T14:51:42.681Z,14.20
2018-11-05T14:54:11.509Z,14.10
2018-11-05T14:56:41.092Z,14.10
2018-11-05T14:59:09.933Z,14.20
2018-11-05T15:01:38.773Z,14.10
2018-11-05T15:04:07.609Z,14.00
2018-11-05T15:06:36.486Z,13.90
2018-11-05T15:09:05.287Z,13.90
2018-11-05T15:11:34.160Z,13.90
2018-11-05T15:14:03.730Z,13.80
2018-11-05T15:16:42.752Z,13.80
2018-11-05T15:19:11.911Z,13.80
2018-11-05T15:21:40.429Z,13.70
2018-11-05T15:24:09.257Z,13.60
2018-11-05T15:26:38.845Z,13.50
2018-11-05T15:29:07.680Z,13.60
2018-11-05T15:31:36.521Z,13.60
2018-11-05T15:34:06.112Z,13.50
2018-11-05T15:36:34.945Z,13.50
2018-11-05T15:39:03.782Z,13.50
2018-11-05T15:41:32.626Z,13.40
2018-11-05T15:44:01.445Z,13.30
2018-11-05T15:46:30.273Z,13.20
2018-11-05T15:48:59.118Z,13.20
2018-11-05T15:51:28.188Z,13.10
2018-11-05T15:53:57.613Z,13.10
2018-11-05T15:56:26.366Z,13.10
2018-11-05T15:58:55.946Z,13.10
2018-11-05T16:01:24.787Z,13.00
2018-11-05T16:03:53.640Z,13.00
2018-11-05T16:06:23.226Z,12.90
2018-11-05T16:08:52.060Z,12.80
2018-11-05T16:11:20.914Z,12.80
2018-11-05T16:13:49.741Z,12.80
2018-11-05T16:16:18.587Z,12.80
2018-11-05T16:18:47.419Z,12.70
2018-11-05T16:21:16.251Z,12.70
2018-11-05T16:23:45.085Z,12.70
2018-11-05T16:26:13.935Z,12.70
2018-11-05T16:28:42.776Z,12.60
2018-11-05T16:31:11.604Z,12.60
2018-11-05T16:33:40.432Z,12.50
2018-11-05T16:36:10.037Z,12.40
2018-11-05T16:38:38.976Z,12.30
2018-11-05T16:41:08.534Z,12.20
2018-11-05T16:43:37.378Z,12.10
2018-11-05T16:46:06.213Z,12.10
2018-11-05T16:48:35.057Z,12.00
2018-11-05T16:51:03.898Z,11.90
2018-11-05T16:53:33.496Z,11.90
2018-11-05T16:56:02.363Z,11.80
2018-11-05T17:01:01.105Z,11.90
2018-11-05T17:03:29.778Z,11.80
2018-11-05T17:05:58.646Z,11.70
2018-11-05T17:08:27.515Z,11.60
2018-11-05T17:10:56.431Z,11.40
2018-11-05T17:13:25.370Z,11.40
2018-11-05T17:15:54.096Z,11.30
2018-11-05T17:18:22.941Z,11.30
2018-11-05T17:20:51.794Z,11.30
2018-11-05T17:23:20.620Z,11.20
2018-11-05T17:25:49.452Z,11.20
2018-11-05T17:28:18.286Z,11.10
2018-11-05T17:30:47.136Z,11.10
2018-11-05T17:33:15.968Z,11.00
2018-11-05T17:35:44.800Z,11.10
2018-11-05T17:38:13.641Z,11.00
2018-11-05T17:40:42.492Z,11.00
2018-11-05T17:43:12.060Z,10.90
2018-11-05T17:45:40.893Z,11.00
2018-11-05T17:48:09.744Z,10.90
2018-11-05T17:50:38.568Z,10.90
2018-11-05T17:53:07.416Z,10.80
2018-11-05T17:55:36.248Z,10.80
2018-11-05T17:58:05.096Z,10.80
2018-11-05T18:00:33.938Z,10.70
2018-11-05T18:03:02.783Z,10.70
2018-11-05T18:05:31.617Z,10.70
2018-11-05T18:08:01.199Z,10.70
2018-11-05T18:10:30.046Z,10.70
2018-11-05T18:12:58.910Z,10.70
2018-11-05T18:15:27.726Z,10.60
2018-11-05T18:17:56.548Z,10.60
2018-11-05T18:20:25.383Z,10.60
2018-11-05T18:22:54.240Z,10.50
2018-11-05T18:25:23.085Z,10.50
2018-11-05T18:27:51.917Z,10.50
2018-11-05T18:30:20.762Z,10.40
2018-11-05T18:32:49.614Z,10.40
2018-11-05T18:35:19.207Z,10.40
2018-11-05T18:37:48.781Z,10.40
2018-11-05T18:40:17.612Z,10.30
2018-11-05T18:42:47.200Z,10.20
2018-11-05T18:45:16.139Z,10.20
2018-11-05T18:47:44.874Z,10.20
2018-11-05T18:50:13.841Z,10.20
2018-11-05T18:52:42.544Z,10.20
2018-11-05T18:55:11.383Z,10.10
2018-11-05T18:57:40.223Z,10.10
2018-11-05T19:00:09.080Z,10.10
2018-11-05T19:02:37.944Z,10.00
2018-11-05T19:05:07.535Z,10.00
2018-11-05T19:07:36.379Z,10.00
2018-11-05T19:10:05.220Z,10.00
2018-11-05T19:12:34.047Z,10.00
2018-11-05T19:15:03.020Z,10.00
2018-11-05T19:17:31.767Z,10.00
2018-11-05T19:20:00.618Z,10.00
2018-11-05T19:22:29.458Z,10.00
2018-11-05T19:24:58.271Z,10.00
2018-11-05T19:27:27.117Z,10.00
2018-11-05T19:29:55.970Z,10.00
2018-11-05T19:32:24.818Z,10.00
2018-11-05T19:34:54.410Z,10.00
2018-11-05T19:37:23.262Z,10.00
2018-11-05T19:39:52.097Z,10.00
2018-11-05T19:42:21.917Z,10.00
2018-11-05T19:44:50.544Z,10.10
2018-11-05T19:47:19.397Z,10.10
2018-11-05T19:49:49.058Z,10.00
2018-11-05T19:52:26.222Z,9.90
2018-11-05T19:54:55.762Z,9.90
2018-11-05T19:59:59.485Z,10.00
2018-11-05T20:02:28.313Z,9.90
2018-11-05T20:04:57.098Z,10.00
2018-11-05T20:07:25.959Z,10.00
2018-11-05T20:09:54.811Z,9.90
2018-11-05T20:12:23.692Z,10.00
2018-11-05T20:14:52.660Z,9.90
2018-11-05T20:19:50.810Z,10.00
2018-11-05T20:22:19.823Z,10.00
2018-11-05T20:24:48.623Z,10.00
2018-11-05T20:27:17.462Z,10.00
2018-11-05T20:29:46.285Z,10.00
2018-11-05T20:32:16.353Z,10.00
2018-11-05T20:34:44.714Z,10.10
2018-11-05T20:37:13.544Z,10.00
2018-11-05T20:39:42.455Z,10.00
2018-11-05T20:42:11.221Z,10.00
2018-11-05T20:44:40.799Z,9.90
2018-11-05T20:47:09.635Z,9.90
2018-11-05T20:49:38.466Z,9.90
2018-11-05T20:52:07.300Z,10.00
2018-11-05T20:54:36.136Z,9.80
2018-11-05T20:57:04.971Z,9.80
2018-11-05T20:59:33.799Z,9.80
2018-11-05T21:02:03.393Z,9.80
2018-11-05T21:04:32.233Z,9.80
2018-11-05T21:07:01.057Z,9.90
2018-11-05T21:09:30.629Z,9.80
2018-11-05T21:11:59.471Z,9.90
2018-11-05T21:14:28.364Z,9.80
2018-11-05T21:16:57.181Z,9.70
2018-11-05T21:19:26.002Z,9.70
2018-11-05T21:21:55.018Z,9.70
2018-11-05T21:24:23.709Z,9.80
2018-11-05T21:26:52.524Z,9.70
2018-11-05T21:29:22.122Z,9.60
2018-11-05T21:31:50.918Z,9.60
2018-11-05T21:34:19.753Z,9.60
2018-11-05T21:36:48.584Z,9.60
2018-11-05T21:39:17.447Z,9.60
2018-11-05T21:41:46.269Z,9.60
2018-11-05T21:44:15.110Z,9.70
2018-11-05T21:46:43.936Z,9.60
2018-11-05T21:49:12.779Z,9.70
2018-11-05T21:51:41.612Z,9.60
2018-11-05T21:54:11.227Z,9.60
2018-11-05T21:56:40.042Z,9.60
2018-11-05T21:59:08.870Z,9.50
2018-11-05T22:01:37.722Z,9.50
2018-11-05T22:04:06.561Z,9.70
2018-11-05T22:06:35.403Z,9.70
2018-11-05T22:09:04.239Z,9.70
2018-11-05T22:11:33.808Z,9.70
2018-11-05T22:14:02.648Z,9.60
2018-11-05T22:16:32.233Z,9.60
2018-11-05T22:19:01.079Z,9.50
2018-11-05T22:21:29.910Z,9.50
2018-11-05T22:23:58.859Z,9.50
2018-11-05T22:26:27.598Z,9.60
2018-11-05T22:28:56.573Z,9.50
2018-11-05T22:31:25.415Z,9.50
2018-11-05T22:33:54.275Z,9.50
2018-11-05T22:36:23.078Z,9.50
2018-11-05T22:38:51.917Z,9.50
2018-11-05T22:41:20.758Z,9.40
2018-11-05T22:43:50.316Z,9.40
2018-11-05T22:46:19.155Z,9.50
2018-11-05T22:48:48.002Z,9.40
2018-11-05T22:51:16.832Z,9.30
2018-11-05T22:53:45.679Z,9.30
2018-11-05T22:56:14.526Z,9.30
2018-11-05T22:58:43.358Z,9.30
2018-11-05T23:01:12.194Z,9.40
2018-11-05T23:03:41.039Z,9.40
2018-11-05T23:06:09.868Z,9.40
2018-11-05T23:08:38.708Z,9.40
2018-11-05T23:11:07.534Z,9.40
2018-11-05T23:13:37.114Z,9.30
2018-11-05T23:16:05.943Z,9.40
2018-11-05T23:18:34.774Z,9.30
2018-11-05T23:21:03.602Z,9.30
2018-11-05T23:23:33.178Z,9.40
2018-11-05T23:26:02.008Z,9.40
2018-11-05T23:28:30.839Z,9.50
2018-11-05T23:30:59.665Z,9.50
2018-11-05T23:33:29.330Z,9.40
2018-11-05T23:35:58.078Z,9.50
2018-11-05T23:38:26.915Z,9.50
2018-11-05T23:40:55.802Z,9.40
2018-11-05T23:43:24.589Z,9.50
2018-11-05T23:45:53.414Z,9.40
2018-11-05T23:48:22.263Z,9.50
2018-11-05T23:50:51.093Z,9.60
2018-11-05T23:53:19.930Z,9.40
2018-11-05T23:55:48.765Z,9.50
2018-11-05T23:58:18.341Z,9.30
